Time;durP1;ratioP1;P1;durP2;ratioP2;P2;SDS_P1;SDS_P2;PMS_P1;PMS_P2;Temp;Humidity;BMP_temperature;BMP_pressure;BME280_temperature;BME280_humidity;BME280_pressure;Samples;Min_cycle;Max_cycle;Signal;HPM_P1;HPM_P2
2024/04/13 00:00:55;;;;;;;14.45;5.10;;;12.00;99.90;;;;;;5376061;26;20443;-55
2024/04/13 00:03:22;;;;;;;7.00;4.80;;;12.00;99.90;;;;;;5350070;26;20012;-59
2024/04/13 00:05:48;;;;;;;10.88;5.22;;;12.00;99.90;;;;;;5369087;26;20346;-59
2024/04/13 00:08:15;;;;;;;14.00;5.20;;;12.00;99.90;;;;;;5404463;26;20072;-58
2024/04/13 00:10:42;;;;;;;12.98;5.55;;;11.90;99.90;;;;;;5367331;26;20016;-58
2024/04/13 00:13:09;;;;;;;10.15;5.40;;;11.90;99.90;;;;;;5372068;26;19999;-57
2024/04/13 00:15:35;;;;;;;12.18;4.95;;;11.90;99.90;;;;;;5372388;26;20001;-58
2024/04/13 00:18:00;;;;;;;9.85;5.32;;;11.90;99.90;;;;;;5371931;26;20000;-57
2024/04/13 00:20:26;;;;;;;8.98;4.50;;;11.90;99.90;;;;;;5382548;26;20010;-55
2024/04/13 00:22:53;;;;;;;9.88;5.28;;;11.90;99.90;;;;;;5362498;26;20018;-58
2024/04/13 00:25:19;;;;;;;11.23;5.90;;;11.90;99.90;;;;;;5379179;26;19996;-57
2024/04/13 00:27:44;;;;;;;7.53;5.03;;;11.90;99.90;;;;;;5367135;26;20011;-55
2024/04/13 00:30:10;;;;;;;11.60;5.00;;;11.80;99.90;;;;;;5365747;26;20024;-58
2024/04/13 00:32:36;;;;;;;11.68;4.70;;;11.80;99.90;;;;;;5364629;26;20015;-59
2024/04/13 00:35:04;;;;;;;9.55;4.88;;;11.80;99.90;;;;;;5368885;26;20011;-58
2024/04/13 00:37:30;;;;;;;11.68;5.38;;;11.80;99.90;;;;;;5366051;26;20001;-58
2024/04/13 00:39:55;;;;;;;9.52;5.57;;;11.80;99.90;;;;;;5368655;26;20035;-60
2024/04/13 00:42:21;;;;;;;7.88;5.18;;;11.80;99.90;;;;;;5355655;26;20048;-58
2024/04/13 00:44:46;;;;;;;11.60;5.13;;;11.80;99.90;;;;;;5399067;26;20015;-56
2024/04/13 00:47:12;;;;;;;14.00;5.65;;;11.80;99.90;;;;;;5369512;26;20444;-58
2024/04/13 00:49:41;;;;;;;19.83;5.82;;;11.80;99.90;;;;;;5372247;26;20004;-57
2024/04/13 00:52:11;;;;;;;12.23;5.20;;;11.80;99.90;;;;;;5368647;26;20010;-56
2024/04/13 00:54:38;;;;;;;11.07;5.32;;;11.80;99.90;;;;;;5370764;26;19993;-58
2024/04/13 00:57:07;;;;;;;8.65;5.65;;;11.70;99.90;;;;;;5379155;26;19996;-56
2024/04/13 00:59:34;;;;;;;11.05;6.13;;;11.70;99.90;;;;;;5371307;26;20004;-57
2024/04/13 01:02:01;;;;;;;9.35;4.88;;;11.70;99.90;;;;;;5365302;26;20004;-57
2024/04/13 01:04:27;;;;;;;9.70;4.60;;;11.60;99.90;;;;;;5353990;26;20085;-58
2024/04/13 01:06:53;;;;;;;8.20;4.50;;;11.60;99.90;;;;;;5362261;26;20007;-57
2024/04/13 01:09:20;;;;;;;7.28;5.15;;;11.60;99.90;;;;;;5373202;26;20015;-56
2024/04/13 01:11:46;;;;;;;9.10;4.95;;;11.60;99.90;;;;;;5369631;26;20024;-56
2024/04/13 01:14:13;;;;;;;8.70;4.93;;;11.60;99.90;;;;;;5359165;26;20012;-57
2024/04/13 01:16:39;;;;;;;12.27;5.05;;;11.50;99.90;;;;;;5358261;26;20024;-56
2024/04/13 01:19:05;;;;;;;12.18;5.53;;;11.50;99.90;;;;;;5362105;26;20020;-57
2024/04/13 01:21:31;;;;;;;12.00;5.50;;;11.50;99.90;;;;;;5369810;26;19996;-57
2024/04/13 01:24:07;;;;;;;8.75;4.90;;;11.50;99.90;;;;;;5368932;26;20004;-57
2024/04/13 01:26:41;;;;;;;12.55;5.72;;;11.40;99.90;;;;;;5369153;26;20358;-56
2024/04/13 01:29:08;;;;;;;13.57;5.68;;;11.40;99.90;;;;;;5363911;26;19996;-60
2024/04/13 01:31:35;;;;;;;12.30;5.22;;;11.40;99.90;;;;;;5392219;26;20019;-59
2024/04/13 01:34:05;;;;;;;7.60;5.25;;;11.40;99.90;;;;;;5372873;26;20012;-57
2024/04/13 01:36:37;;;;;;;13.80;5.65;;;11.40;99.90;;;;;;5374359;26;20012;-59
2024/04/13 01:39:07;;;;;;;13.52;4.78;;;11.40;99.90;;;;;;5369668;26;20335;-58
2024/04/13 01:41:41;;;;;;;8.35;4.60;;;11.30;99.90;;;;;;5351931;26;20001;-58
2024/04/13 01:44:06;;;;;;;7.82;4.97;;;11.30;99.90;;;;;;5359028;26;19997;-58
2024/04/13 01:46:35;;;;;;;12.20;5.75;;;11.30;99.90;;;;;;5363013;26;20013;-57
2024/04/13 01:49:01;;;;;;;17.20;6.55;;;11.30;99.90;;;;;;5363709;26;20004;-58
2024/04/13 01:51:28;;;;;;;11.43;5.13;;;11.30;99.90;;;;;;5362896;26;20562;-57
2024/04/13 01:53:54;;;;;;;7.13;5.20;;;11.30;99.90;;;;;;5362008;26;19997;-58
2024/04/13 01:56:19;;;;;;;12.30;5.95;;;11.30;99.90;;;;;;5360112;26;20323;-58
2024/04/13 01:58:45;;;;;;;12.23;5.35;;;11.30;99.90;;;;;;5366967;26;20400;-57
2024/04/13 02:01:10;;;;;;;11.32;5.97;;;11.30;99.90;;;;;;5367356;26;20047;-58
2024/04/13 02:03:37;;;;;;;12.13;5.82;;;11.30;99.90;;;;;;5361948;26;20081;-59
2024/04/13 02:06:04;;;;;;;14.27;5.25;;;11.30;99.90;;;;;;5375425;26;20470;-59
2024/04/13 02:08:34;;;;;;;16.80;6.18;;;11.30;99.90;;;;;;5356929;26;19997;-59
2024/04/13 02:11:00;;;;;;;12.45;6.50;;;11.20;99.90;;;;;;5376671;26;20462;-59
2024/04/13 02:13:28;;;;;;;12.60;5.80;;;11.20;99.90;;;;;;5377234;26;20004;-60
2024/04/13 02:15:54;;;;;;;13.52;5.32;;;11.20;99.90;;;;;;5375341;26;20004;-58
2024/04/13 02:18:20;;;;;;;7.75;5.05;;;11.20;99.90;;;;;;5369340;26;20015;-59
2024/04/13 02:23:14;;;;;;;8.43;5.55;;;11.10;99.90;;;;;;5329419;26;20013;-60
2024/04/13 02:25:46;;;;;;;10.70;5.43;;;11.10;99.90;;;;;;5341945;26;20408;-59
2024/04/13 02:28:12;;;;;;;11.13;5.38;;;11.00;99.90;;;;;;5327188;26;20083;-59
2024/04/13 02:30:37;;;;;;;8.70;4.63;;;11.00;99.90;;;;;;5342978;26;20005;-59
2024/04/13 02:33:03;;;;;;;13.40;5.80;;;11.00;99.90;;;;;;5329910;26;20660;-56
2024/04/13 02:35:30;;;;;;;15.23;6.38;;;11.00;99.90;;;;;;5342425;26;19997;-58
2024/04/13 02:37:58;;;;;;;9.93;6.03;;;11.00;99.90;;;;;;5335855;26;20001;-59
2024/04/13 02:40:23;;;;;;;11.43;5.03;;;11.00;99.90;;;;;;5325778;26;20041;-55
2024/04/13 02:42:53;;;;;;;13.55;5.15;;;10.90;99.90;;;;;;5326938;26;20079;-60
2024/04/13 02:45:18;;;;;;;15.27;7.13;;;10.90;99.90;;;;;;5327055;26;20030;-60
2024/04/13 02:47:45;;;;;;;14.23;6.63;;;10.90;99.90;;;;;;5320599;26;20020;-57
2024/04/13 02:50:10;;;;;;;9.45;5.43;;;10.90;99.90;;;;;;5337070;26;20082;-59
2024/04/13 02:52:38;;;;;;;15.88;6.40;;;10.90;99.90;;;;;;5314428;26;20013;-57
2024/04/13 02:55:04;;;;;;;9.90;6.68;;;10.90;99.90;;;;;;5345013;26;20334;-57
2024/04/13 02:57:30;;;;;;;15.32;6.30;;;10.90;99.90;;;;;;5333408;26;20004;-57
2024/04/13 02:59:56;;;;;;;15.65;6.95;;;10.90;99.90;;;;;;5341487;26;20013;-54
2024/04/13 03:02:23;;;;;;;10.48;6.78;;;11.00;99.90;;;;;;5340947;26;20012;-59
2024/04/13 03:04:51;;;;;;;13.02;6.57;;;11.10;99.90;;;;;;5323251;26;20031;-57
2024/04/13 03:07:17;;;;;;;9.90;6.00;;;11.00;99.90;;;;;;5338640;26;19993;-59
2024/04/13 03:09:44;;;;;;;17.95;7.45;;;11.00;99.90;;;;;;5329952;26;20005;-60
2024/04/13 03:12:09;;;;;;;13.15;7.45;;;11.10;99.90;;;;;;5330437;26;20075;-59
2024/04/13 03:14:35;;;;;;;13.90;6.07;;;11.10;99.90;;;;;;5339060;26;19997;-57
2024/04/13 03:17:00;;;;;;;10.38;6.68;;;11.00;99.90;;;;;;5338757;26;20033;-56
2024/04/13 03:19:26;;;;;;;12.23;5.80;;;11.00;99.90;;;;;;5306162;26;20014;-58
2024/04/13 03:21:51;;;;;;;11.27;5.53;;;11.00;99.90;;;;;;5341739;26;20016;-59
2024/04/13 03:24:18;;;;;;;13.25;5.50;;;10.90;99.90;;;;;;5336340;26;20093;-53
2024/04/13 03:26:46;;;;;;;13.80;6.22;;;10.90;99.90;;;;;;5335781;26;20008;-60
2024/04/13 03:29:12;;;;;;;12.88;5.45;;;10.80;99.90;;;;;;5337838;26;20001;-59
2024/04/13 03:31:38;;;;;;;13.07;6.75;;;10.90;99.90;;;;;;5335730;26;20334;-57
2024/04/13 03:34:04;;;;;;;13.90;6.72;;;10.80;99.90;;;;;;5341256;26;20336;-56
2024/04/13 03:36:30;;;;;;;11.40;5.95;;;10.90;99.90;;;;;;5339774;26;20011;-59
2024/04/13 03:38:56;;;;;;;13.02;6.38;;;10.90;99.90;;;;;;5331180;26;20045;-59
2024/04/13 03:41:22;;;;;;;11.98;6.63;;;10.80;99.90;;;;;;5330529;26;20036;-56
2024/04/13 03:43:47;;;;;;;16.27;6.22;;;10.80;99.90;;;;;;5338100;26;20059;-58
2024/04/13 03:46:13;;;;;;;9.98;5.65;;;10.80;99.90;;;;;;5337959;26;20033;-55
2024/04/13 03:48:41;;;;;;;13.48;6.35;;;10.80;99.90;;;;;;5335230;26;20374;-60
2024/04/13 03:51:11;;;;;;;15.05;6.00;;;10.70;99.90;;;;;;5337824;26;20005;-60
2024/04/13 03:53:37;;;;;;;11.85;5.65;;;10.70;99.90;;;;;;5343754;26;20005;-56
2024/04/13 03:56:04;;;;;;;12.40;6.25;;;10.70;99.90;;;;;;5340265;26;20096;-58
2024/04/13 03:58:30;;;;;;;8.60;5.85;;;10.70;99.90;;;;;;5335210;26;20441;-57
2024/04/13 04:00:56;;;;;;;11.50;5.93;;;10.60;99.90;;;;;;5336857;26;20008;-58
2024/04/13 04:03:23;;;;;;;12.95;6.05;;;10.60;99.90;;;;;;5336592;26;20037;-60
2024/04/13 04:05:49;;;;;;;10.60;6.35;;;10.60;99.90;;;;;;5324610;26;20253;-57
2024/04/13 04:08:14;;;;;;;13.75;6.50;;;10.60;99.90;;;;;;5338634;26;20016;-55
2024/04/13 04:10:43;;;;;;;15.77;8.27;;;10.60;99.90;;;;;;5335742;26;20012;-58
2024/04/13 04:13:08;;;;;;;13.25;6.53;;;10.60;99.90;;;;;;5307890;26;20047;-60
2024/04/13 04:15:34;;;;;;;15.30;6.63;;;10.50;99.90;;;;;;5312935;26;20004;-56
2024/04/13 04:18:02;;;;;;;18.23;7.07;;;10.50;99.90;;;;;;5338942;26;20458;-56
2024/04/13 04:20:31;;;;;;;15.35;6.15;;;10.50;99.90;;;;;;5344760;26;20074;-61
2024/04/13 04:22:56;;;;;;;11.00;5.72;;;10.40;99.90;;;;;;5332335;26;20012;-57
2024/04/13 04:25:23;;;;;;;10.63;6.53;;;10.40;99.90;;;;;;5312098;26;20016;-60
2024/04/13 04:27:49;;;;;;;21.13;6.82;;;10.40;99.90;;;;;;5340034;26;20004;-59
2024/04/13 04:30:15;;;;;;;15.10;6.63;;;10.30;99.90;;;;;;5340983;26;20009;-60
2024/04/13 04:32:42;;;;;;;12.38;6.45;;;10.30;99.90;;;;;;5344235;26;20012;-55
2024/04/13 04:35:08;;;;;;;11.48;6.10;;;10.30;99.90;;;;;;5330674;26;20010;-57
2024/04/13 04:37:34;;;;;;;11.00;6.30;;;10.30;99.90;;;;;;5314680;26;20692;-56
2024/04/13 04:40:00;;;;;;;12.63;6.00;;;10.20;99.90;;;;;;5337571;26;20077;-57
2024/04/13 04:42:28;;;;;;;14.32;7.15;;;10.30;99.90;;;;;;5341007;26;20000;-58
2024/04/13 04:44:57;;;;;;;19.00;8.13;;;10.30;99.90;;;;;;5333349;26;20009;-56
2024/04/13 04:47:22;;;;;;;11.57;7.10;;;10.40;99.90;;;;;;5340817;26;20005;-60
2024/04/13 04:49:48;;;;;;;21.85;8.35;;;10.50;99.90;;;;;;5333558;26;20631;-58
2024/04/13 04:52:14;;;;;;;11.18;6.72;;;10.60;99.90;;;;;;5333748;26;19997;-56
2024/04/13 04:54:41;;;;;;;15.15;7.53;;;10.60;99.90;;;;;;5336627;26;20393;-57
2024/04/13 04:57:06;;;;;;;18.67;7.53;;;10.70;99.90;;;;;;5338222;26;20071;-57
2024/04/13 04:59:32;;;;;;;13.65;7.10;;;10.80;99.90;;;;;;5322358;26;20021;-58
2024/04/13 05:01:58;;;;;;;20.67;7.55;;;10.90;99.90;;;;;;5336701;26;20008;-57
2024/04/13 05:04:27;;;;;;;14.07;7.05;;;11.00;99.90;;;;;;5302818;26;19996;-58
2024/04/13 05:06:53;;;;;;;13.13;7.93;;;11.10;99.90;;;;;;5333556;26;20335;-57
2024/04/13 05:09:19;;;;;;;14.60;7.28;;;11.20;99.90;;;;;;5340350;26;20008;-54
2024/04/13 05:11:45;;;;;;;11.00;5.68;;;11.30;99.90;;;;;;5340415;26;20356;-61
2024/04/13 05:14:12;;;;;;;10.98;5.80;;;11.30;99.90;;;;;;5333692;26;20008;-54
2024/04/13 05:16:38;;;;;;;13.88;6.78;;;11.40;99.90;;;;;;5329613;26;20079;-57
2024/04/13 05:19:03;;;;;;;12.20;6.18;;;11.50;99.90;;;;;;5282717;26;20331;-58
2024/04/13 05:21:32;;;;;;;14.82;6.13;;;11.50;99.90;;;;;;5341053;26;20012;-55
2024/04/13 05:23:58;;;;;;;13.98;6.60;;;11.50;99.90;;;;;;5334508;26;20005;-59
2024/04/13 05:26:24;;;;;;;10.90;6.13;;;11.60;99.90;;;;;;5308178;26;20536;-58
2024/04/13 05:28:50;;;;;;;13.50;5.97;;;11.70;99.90;;;;;;5339229;26;20001;-59
2024/04/13 05:31:16;;;;;;;10.70;5.53;;;11.70;99.90;;;;;;5344359;26;20068;-59
2024/04/13 05:33:44;;;;;;;10.95;5.95;;;11.80;99.90;;;;;;5338699;26;20006;-58
2024/04/13 05:36:10;;;;;;;14.70;5.88;;;11.90;99.90;;;;;;5342463;26;20000;-57
2024/04/13 05:38:35;;;;;;;7.38;4.93;;;11.90;99.90;;;;;;5346585;26;20001;-57
2024/04/13 05:41:01;;;;;;;12.30;5.38;;;12.10;99.90;;;;;;5338207;26;20393;-57
2024/04/13 05:43:27;;;;;;;10.98;5.18;;;12.20;99.90;;;;;;5337043;26;20005;-59
2024/04/13 05:45:52;;;;;;;9.93;4.68;;;12.40;99.90;;;;;;5336414;26;20086;-61
2024/04/13 05:48:21;;;;;;;6.53;4.30;;;12.70;99.90;;;;;;5335473;26;19997;-57
2024/04/13 05:50:57;;;;;;;10.63;4.55;;;12.90;99.90;;;;;;5331532;26;20040;-57
2024/04/13 05:53:23;;;;;;;7.57;4.47;;;13.10;99.90;;;;;;5335120;26;20431;-58
2024/04/13 05:55:49;;;;;;;7.88;3.90;;;13.20;99.90;;;;;;5334503;26;20009;-57
2024/04/13 05:58:14;;;;;;;4.55;3.42;;;13.30;99.90;;;;;;5332095;26;20071;-57
2024/04/13 06:00:44;;;;;;;11.13;4.00;;;13.40;99.90;;;;;;5335434;26;20342;-60
2024/04/13 06:03:10;;;;;;;8.02;3.80;;;13.40;99.90;;;;;;5336051;26;20001;-59
2024/04/13 06:05:35;;;;;;;8.73;4.32;;;13.50;99.90;;;;;;5318454;26;20017;-58
2024/04/13 06:08:01;;;;;;;10.85;4.25;;;13.60;99.90;;;;;;5315231;26;20012;-59
2024/04/13 06:10:27;;;;;;;8.07;4.25;;;13.80;99.90;;;;;;5339617;26;20001;-58
2024/04/13 06:12:52;;;;;;;6.25;3.88;;;13.90;99.90;;;;;;5336490;26;20074;-57
2024/04/13 06:15:18;;;;;;;5.32;4.22;;;14.20;99.90;;;;;;5341493;26;19997;-59
2024/04/13 06:17:43;;;;;;;14.32;4.40;;;14.50;99.90;;;;;;5333850;26;20012;-60
2024/04/13 06:20:09;;;;;;;8.20;3.85;;;14.70;99.90;;;;;;5333201;26;20016;-55
2024/04/13 06:22:36;;;;;;;10.20;3.95;;;14.80;99.90;;;;;;5338612;26;20025;-55
2024/04/13 06:25:03;;;;;;;15.90;5.10;;;14.90;99.90;;;;;;5337952;26;20000;-56
2024/04/13 06:27:30;;;;;;;6.18;3.65;;;15.10;99.90;;;;;;5344864;26;20048;-52
2024/04/13 06:29:56;;;;;;;11.85;3.78;;;15.30;99.90;;;;;;5332390;26;20001;-55
2024/04/13 06:32:21;;;;;;;6.70;3.65;;;15.50;99.90;;;;;;5343831;26;20001;-55
2024/04/13 06:34:47;;;;;;;6.78;3.95;;;15.80;99.90;;;;;;5333364;26;20398;-58
2024/04/13 06:37:13;;;;;;;7.20;4.15;;;16.20;99.90;;;;;;5339153;26;20037;-56
2024/04/13 06:39:39;;;;;;;10.27;3.67;;;17.00;99.90;;;;;;5343888;26;20020;-56
2024/04/13 06:42:05;;;;;;;9.23;3.10;;;17.40;99.90;;;;;;5337177;26;20045;-59
2024/04/13 06:44:31;;;;;;;6.10;3.20;;;18.00;99.90;;;;;;5335826;26;20001;-58
2024/04/13 06:46:56;;;;;;;6.55;2.72;;;18.80;99.90;;;;;;5342420;26;20009;-56
2024/04/13 06:49:22;;;;;;;8.57;3.08;;;19.10;99.90;;;;;;5329530;26;20012;-57
2024/04/13 06:51:48;;;;;;;6.78;2.90;;;19.50;99.90;;;;;;5343580;26;20009;-54
2024/04/13 06:54:13;;;;;;;7.32;3.28;;;19.90;99.90;;;;;;5341129;26;20012;-57
2024/04/13 06:56:40;;;;;;;8.68;2.78;;;20.40;99.90;;;;;;5341088;26;20008;-57
2024/04/13 06:59:06;;;;;;;8.30;2.38;;;20.70;99.90;;;;;;5337946;26;19997;-60
2024/04/13 07:01:33;;;;;;;5.68;2.88;;;21.10;99.90;;;;;;5342308;26;22125;-55
2024/04/13 07:03:59;;;;;;;6.38;2.55;;;21.10;99.90;;;;;;5344646;26;19997;-58
2024/04/13 07:06:25;;;;;;;5.32;3.17;;;21.20;99.90;;;;;;5323183;26;20013;-58
2024/04/13 07:08:51;;;;;;;4.78;2.72;;;21.50;99.90;;;;;;5342756;26;20071;-60
2024/04/13 07:11:17;;;;;;;6.70;2.55;;;21.40;99.90;;;;;;5344642;26;21778;-57
2024/04/13 07:13:42;;;;;;;3.92;2.38;;;22.30;99.90;;;;;;5339698;26;20355;-54
2024/04/13 07:16:09;;;;;;;7.15;3.03;;;22.20;99.90;;;;;;5339929;26;20010;-56
2024/04/13 07:18:35;;;;;;;4.68;2.47;;;23.10;97.90;;;;;;5336258;26;20000;-60
2024/04/13 07:21:01;;;;;;;5.28;2.45;;;22.90;98.10;;;;;;5335721;26;20023;-59
2024/04/13 07:23:27;;;;;;;3.88;2.10;;;22.50;99.00;;;;;;5335930;26;20008;-57
2024/04/13 07:26:02;;;;;;;10.00;2.60;;;22.40;99.50;;;;;;5334320;26;20001;-58
2024/04/13 07:28:29;;;;;;;5.78;2.58;;;22.30;99.50;;;;;;5335317;26;20410;-60
2024/04/13 07:30:55;;;;;;;5.32;2.78;;;22.30;99.90;;;;;;5334267;26;20451;-59
2024/04/13 07:33:21;;;;;;;5.00;2.72;;;22.50;99.90;;;;;;5336523;26;20012;-55
2024/04/13 07:35:48;;;;;;;4.68;2.47;;;22.00;98.80;;;;;;5335310;26;20016;-60
2024/04/13 07:38:14;;;;;;;5.97;2.65;;;22.60;99.00;;;;;;5335641;26;20001;-58
2024/04/13 07:40:39;;;;;;;7.72;2.70;;;23.00;99.00;;;;;;5337144;26;20016;-55
2024/04/13 07:43:05;;;;;;;5.63;3.00;;;22.70;98.00;;;;;;5350006;26;20443;-56
2024/04/13 07:45:31;;;;;;;6.03;3.00;;;22.70;99.10;;;;;;5340409;26;20015;-59
2024/04/13 07:47:56;;;;;;;6.25;2.88;;;23.10;99.20;;;;;;5335274;26;20005;-59
2024/04/13 07:50:23;;;;;;;4.45;2.30;;;23.60;98.50;;;;;;5335835;26;20013;-57
2024/04/13 07:52:49;;;;;;;5.70;2.88;;;24.70;96.50;;;;;;5334864;26;20020;-56
2024/04/13 07:55:15;;;;;;;7.82;2.88;;;24.60;95.20;;;;;;5334091;26;20027;-56
2024/04/13 07:57:41;;;;;;;6.40;3.03;;;24.60;95.50;;;;;;5333928;26;20025;-56
2024/04/13 08:00:09;;;;;;;8.85;3.13;;;24.10;95.40;;;;;;5305699;26;20037;-60
2024/04/13 08:02:34;;;;;;;4.90;2.47;;;24.50;95.80;;;;;;5335397;26;20454;-59
2024/04/13 08:05:00;;;;;;;6.15;2.67;;;25.30;94.30;;;;;;5335919;26;20001;-58
2024/04/13 08:07:25;;;;;;;3.45;2.15;;;25.70;93.80;;;;;;5323353;26;20009;-60
2024/04/13 08:09:51;;;;;;;4.10;2.30;;;24.50;95.20;;;;;;5333650;26;20000;-57
2024/04/13 08:12:17;;;;;;;6.63;2.80;;;24.50;96.10;;;;;;5338029;26;20105;-56
2024/04/13 08:14:42;;;;;;;5.85;3.25;;;25.20;94.40;;;;;;5309692;26;20020;-54
2024/04/13 08:17:08;;;;;;;6.47;2.38;;;25.00;95.00;;;;;;5340659;26;20005;-58
2024/04/13 08:19:33;;;;;;;3.05;1.95;;;24.40;94.80;;;;;;5335971;26;20009;-59
2024/04/13 08:21:59;;;;;;;6.07;2.60;;;25.10;95.50;;;;;;5352169;21;20005;-81
2024/04/13 08:24:25;;;;;;;4.40;2.40;;;25.20;94.90;;;;;;5415279;26;20014;-81
2024/04/13 08:26:50;;;;;;;6.50;2.33;;;25.20;95.20;;;;;;5342169;26;20377;-82
2024/04/13 08:29:16;;;;;;;4.63;2.33;;;25.20;94.70;;;;;;5381929;26;20015;-81
2024/04/13 08:31:42;;;;;;;5.20;2.65;;;25.90;94.20;;;;;;5348827;26;19998;-82
2024/04/13 08:34:07;;;;;;;5.13;2.33;;;26.50;93.50;;;;;;5355700;26;20011;-82
2024/04/13 08:36:33;;;;;;;3.75;2.00;;;27.20;93.10;;;;;;5366301;26;19992;-81
2024/04/13 08:38:58;;;;;;;4.32;2.30;;;26.70;93.50;;;;;;5354747;26;20029;-82
2024/04/13 08:41:49;;;;;;;5.82;2.42;;;27.40;92.00;;;;;;5336140;26;20074;-82
2024/04/13 08:44:16;;;;;;;4.60;2.40;;;27.10;93.00;;;;;;5321993;26;20012;-82
2024/04/13 08:46:43;;;;;;;4.82;2.50;;;27.70;92.00;;;;;;5397086;26;19996;-83
2024/04/13 08:49:09;;;;;;;7.97;2.72;;;28.10;91.30;;;;;;5367331;26;20004;-82
2024/04/13 08:51:37;;;;;;;4.70;2.25;;;27.40;91.60;;;;;;5357939;26;19992;-82
2024/04/13 08:54:05;;;;;;;4.80;2.30;;;27.30;91.60;;;;;;5376675;26;20020;-82
2024/04/13 08:56:33;;;;;;;5.25;2.00;;;27.40;91.60;;;;;;5343775;26;20011;-82
2024/04/13 08:59:02;;;;;;;7.75;2.53;;;27.40;90.90;;;;;;5372293;26;20013;-82
2024/04/13 09:01:30;;;;;;;6.15;2.47;;;27.30;91.10;;;;;;5344943;26;20000;-82
2024/04/13 09:03:57;;;;;;;5.28;2.00;;;26.00;91.90;;;;;;5371798;26;20008;-82
2024/04/13 09:06:23;;;;;;;7.18;1.92;;;25.50;92.90;;;;;;5372791;26;20001;-82
2024/04/13 09:08:49;;;;;;;5.22;1.92;;;26.00;93.10;;;;;;5338979;26;20433;-82
2024/04/13 09:11:15;;;;;;;6.38;2.40;;;26.50;91.80;;;;;;5362310;26;20012;-81
2024/04/13 09:13:43;;;;;;;5.15;1.92;;;26.20;92.00;;;;;;5367788;26;20000;-82
2024/04/13 09:16:09;;;;;;;3.95;1.98;;;25.90;93.10;;;;;;5368705;26;20015;-82
2024/04/13 09:18:35;;;;;;;5.40;2.10;;;26.40;93.60;;;;;;5373303;26;20446;-82
2024/04/13 09:21:02;;;;;;;5.78;2.70;;;26.40;92.80;;;;;;5338389;26;20012;-82
2024/04/13 09:23:29;;;;;;;10.05;2.80;;;27.00;92.80;;;;;;5368102;26;20091;-82
2024/04/13 09:26:05;;;;;;;3.33;2.33;;;27.00;90.60;;;;;;5341604;26;20027;-83
2024/04/13 09:28:46;;;;;;;6.60;2.47;;;26.30;91.30;;;;;;5370458;26;20007;-83
2024/04/13 09:31:14;;;;;;;5.95;2.80;;;26.10;92.40;;;;;;5344720;26;20055;-82
2024/04/13 09:33:40;;;;;;;7.05;2.50;;;25.80;92.40;;;;;;5375260;26;20327;-82
2024/04/13 09:36:08;;;;;;;7.68;2.78;;;26.00;93.10;;;;;;5333291;26;20075;-83
2024/04/13 09:38:35;;;;;;;5.47;2.95;;;26.40;92.50;;;;;;5341166;26;20000;-82
2024/04/13 09:41:01;;;;;;;5.88;2.20;;;26.50;92.50;;;;;;5375691;26;20000;-82
2024/04/13 09:43:27;;;;;;;8.20;2.88;;;26.40;92.20;;;;;;5320072;26;20034;-82
2024/04/13 09:46:11;;;;;;;7.53;2.22;;;26.30;92.10;;;;;;5364482;26;20000;-82
2024/04/13 09:48:37;;;;;;;5.72;2.25;;;26.20;92.60;;;;;;5360533;26;19996;-82
2024/04/13 09:51:02;;;;;;;5.60;2.45;;;26.50;91.70;;;;;;5374237;26;20020;-82
2024/04/13 09:53:28;;;;;;;5.72;2.38;;;26.90;92.30;;;;;;5340452;26;20012;-82
2024/04/13 09:55:54;;;;;;;5.45;2.20;;;26.50;91.90;;;;;;5364348;26;20013;-82
2024/04/13 09:58:20;;;;;;;3.55;2.17;;;26.80;92.80;;;;;;5368514;26;20001;-82
2024/04/13 10:00:48;;;;;;;5.57;2.00;;;27.20;92.10;;;;;;5374007;26;20005;-82
2024/04/13 10:03:15;;;;;;;5.93;2.28;;;27.50;93.00;;;;;;5370882;26;20075;-82
2024/04/13 10:05:43;;;;;;;7.15;2.85;;;27.50;91.20;;;;;;5363097;26;20000;-82
2024/04/13 10:08:09;;;;;;;3.88;1.90;;;26.70;91.70;;;;;;5338522;26;19997;-82
2024/04/13 10:10:39;;;;;;;7.57;2.33;;;26.20;91.80;;;;;;5367262;26;19997;-82
2024/04/13 10:13:06;;;;;;;4.30;2.28;;;26.20;92.60;;;;;;5370059;26;20409;-82
2024/04/13 10:15:33;;;;;;;4.10;2.15;;;26.20;92.10;;;;;;5372190;26;20473;-82
2024/04/13 10:18:01;;;;;;;5.82;2.55;;;26.20;92.80;;;;;;5342179;26;19997;-82
2024/04/13 10:20:27;;;;;;;2.92;2.00;;;25.90;92.00;;;;;;5369727;26;20011;-81
2024/04/13 10:22:54;;;;;;;2.70;1.70;;;25.80;92.80;;;;;;5346141;26;20004;-82
2024/04/13 10:25:29;;;;;;;12.90;3.08;;;25.60;93.00;;;;;;5365951;26;20024;-82
2024/04/13 10:28:08;;;;;;;7.15;2.75;;;26.00;92.90;;;;;;5335955;26;19997;-82
2024/04/13 10:30:52;;;;;;;6.07;3.10;;;26.10;92.70;;;;;;5339729;26;20013;-84
2024/04/13 10:33:23;;;;;;;4.55;2.53;;;26.20;92.70;;;;;;5371889;26;20011;-82
2024/04/13 10:35:51;;;;;;;6.85;2.15;;;26.20;92.50;;;;;;5341795;26;20019;-82
2024/04/13 10:38:18;;;;;;;7.60;2.33;;;26.30;92.80;;;;;;5345283;26;20067;-82
2024/04/13 10:40:43;;;;;;;5.93;2.17;;;26.30;92.70;;;;;;5364078;26;20076;-82
2024/04/13 10:43:16;;;;;;;7.57;2.38;;;26.20;92.40;;;;;;5347602;26;20390;-83
2024/04/13 10:45:41;;;;;;;5.95;2.58;;;26.20;92.40;;;;;;5363330;26;20017;-82
2024/04/13 10:48:07;;;;;;;4.15;2.05;;;26.20;92.40;;;;;;5370026;26;20447;-82
2024/04/13 10:50:33;;;;;;;5.28;2.20;;;26.20;93.00;;;;;;5366916;26;20020;-82
2024/04/13 10:52:58;;;;;;;5.53;2.22;;;26.30;92.60;;;;;;5366874;26;20087;-82
2024/04/13 10:55:25;;;;;;;4.25;1.75;;;26.00;92.00;;;;;;5364678;26;20011;-83
2024/04/13 10:57:52;;;;;;;6.95;1.98;;;25.70;92.90;;;;;;5335338;26;19997;-83
2024/04/13 11:00:18;;;;;;;4.97;1.77;;;25.50;92.30;;;;;;5375606;26;20000;-83
2024/04/13 11:02:46;;;;;;;6.43;2.20;;;25.20;92.60;;;;;;5359132;26;20016;-83
2024/04/13 11:05:17;;;;;;;4.20;1.58;;;25.30;92.50;;;;;;5396548;26;20012;-83
2024/04/13 11:07:43;;;;;;;6.65;2.40;;;24.90;93.20;;;;;;5377821;26;20524;-82
2024/04/13 11:10:08;;;;;;;2.47;1.38;;;25.10;93.50;;;;;;5347431;26;20008;-83
2024/04/13 11:12:34;;;;;;;5.10;2.33;;;25.10;93.20;;;;;;5365916;26;19997;-83
2024/04/13 11:15:00;;;;;;;12.02;2.30;;;25.20;92.70;;;;;;5340595;26;20023;-83
2024/04/13 11:17:25;;;;;;;4.45;1.80;;;25.10;92.70;;;;;;5343441;26;20011;-83
2024/04/13 11:19:51;;;;;;;5.18;2.10;;;25.30;93.80;;;;;;5374541;26;20040;-83
2024/04/13 11:22:17;;;;;;;7.80;2.42;;;25.20;93.00;;;;;;5366856;26;20011;-82
2024/04/13 11:24:44;;;;;;;4.03;1.80;;;25.50;92.30;;;;;;5364087;26;20074;-82
2024/04/13 11:27:09;;;;;;;3.95;1.52;;;25.70;92.70;;;;;;5373174;26;20465;-83
2024/04/13 11:29:36;;;;;;;6.88;2.20;;;25.90;92.00;;;;;;5344951;26;20062;-83
2024/04/13 11:32:02;;;;;;;4.18;1.75;;;25.90;92.60;;;;;;5345078;26;20346;-83
2024/04/13 11:34:28;;;;;;;3.47;1.35;;;25.80;92.10;;;;;;5375046;26;20010;-82
2024/04/13 11:37:04;;;;;;;4.60;1.55;;;25.60;91.60;;;;;;5356821;21;20021;-68
2024/04/13 11:39:36;;;;;;;5.00;1.77;;;25.60;91.60;;;;;;5323991;26;20018;-68
2024/04/13 11:42:05;;;;;;;4.03;1.50;;;25.40;91.70;;;;;;5331467;26;20494;-68
2024/04/13 11:44:31;;;;;;;3.25;1.38;;;25.40;91.60;;;;;;5317302;26;20010;-68
2024/04/13 11:46:59;;;;;;;5.95;1.23;;;25.40;92.00;;;;;;5332313;26;20081;-60
2024/04/13 11:49:26;;;;;;;3.97;1.77;;;25.40;92.20;;;;;;5331540;26;20016;-62
2024/04/13 11:51:51;;;;;;;3.45;1.52;;;25.20;92.50;;;;;;5326488;26;20031;-62
2024/04/13 11:54:17;;;;;;;4.53;1.90;;;25.30;92.10;;;;;;5331830;26;20004;-62
2024/04/13 11:56:43;;;;;;;3.50;1.90;;;25.30;92.20;;;;;;5329961;26;20048;-64
2024/04/13 11:59:12;;;;;;;2.60;1.75;;;25.30;92.20;;;;;;5315831;26;20013;-62
2024/04/13 12:01:38;;;;;;;3.22;1.27;;;25.20;92.50;;;;;;5337557;26;20552;-62
2024/04/13 12:04:04;;;;;;;5.10;1.45;;;25.20;91.90;;;;;;5328838;26;20009;-59
2024/04/13 12:06:29;;;;;;;9.63;1.77;;;25.10;92.50;;;;;;5328612;26;20013;-60
2024/04/13 12:08:55;;;;;;;1.50;1.15;;;25.00;92.60;;;;;;5331027;26;20051;-60
2024/04/13 12:11:20;;;;;;;3.85;1.48;;;25.00;92.20;;;;;;5325554;26;20019;-60
2024/04/13 12:13:46;;;;;;;6.20;1.50;;;25.20;92.20;;;;;;5321720;26;20360;-60
2024/04/13 12:16:12;;;;;;;5.68;1.83;;;25.40;92.20;;;;;;5323464;26;20052;-60
2024/04/13 12:18:38;;;;;;;3.35;1.55;;;25.50;92.40;;;;;;5326661;26;20113;-59
2024/04/13 12:21:04;;;;;;;3.20;1.40;;;25.50;91.80;;;;;;5324311;26;20053;-60
2024/04/13 12:23:30;;;;;;;2.28;0.95;;;25.40;92.00;;;;;;5324493;26;20355;-61
2024/04/13 12:25:55;;;;;;;3.08;1.02;;;25.50;92.50;;;;;;5321991;26;20001;-60
2024/04/13 12:28:21;;;;;;;3.45;1.50;;;25.60;91.60;;;;;;5329027;26;20009;-60
2024/04/13 12:30:47;;;;;;;3.33;1.40;;;25.40;91.60;;;;;;5319090;26;20331;-58
2024/04/13 12:33:12;;;;;;;3.28;1.40;;;25.60;92.60;;;;;;5321629;26;20049;-60
2024/04/13 12:35:38;;;;;;;5.47;1.42;;;25.40;91.30;;;;;;5323230;26;20396;-59
2024/04/13 12:38:04;;;;;;;4.82;1.35;;;25.40;91.60;;;;;;5318898;26;20009;-59
2024/04/13 12:40:30;;;;;;;2.97;1.42;;;25.30;92.50;;;;;;5320882;26;20049;-61
2024/04/13 12:42:56;;;;;;;3.13;1.20;;;25.50;92.10;;;;;;5305679;26;20082;-60